createdAt,value
2019-01-20T00:01:32.205Z,-4.10
2019-01-20T00:04:01.460Z,-4.20
2019-01-20T00:06:30.656Z,-4.30
2019-01-20T00:08:59.809Z,-4.20
2019-01-20T00:11:28.965Z,-4.20
2019-01-20T00:13:58.112Z,-4.40
2019-01-20T00:16:27.386Z,-4.40
2019-01-20T00:18:56.770Z,-4.50
2019-01-20T00:21:25.932Z,-4.60
2019-01-20T00:23:55.180Z,-4.60
2019-01-20T00:26:24.334Z,-4.40
2019-01-20T00:28:53.489Z,-4.30
2019-01-20T00:31:22.672Z,-4.40
2019-01-20T00:33:51.837Z,-4.50
2019-01-20T00:36:20.999Z,-4.50
2019-01-20T00:38:50.205Z,-4.60
2019-01-20T00:41:24.038Z,-4.60
2019-01-20T00:43:50.325Z,-4.60
2019-01-20T00:46:19.509Z,-4.70
2019-01-20T00:48:48.692Z,-4.60
2019-01-20T00:51:18.129Z,-4.70
2019-01-20T00:53:47.286Z,-4.90
2019-01-20T00:56:16.448Z,-4.60
2019-01-20T00:58:45.708Z,-4.70
2019-01-20T01:01:14.870Z,-4.50
2019-01-20T01:03:44.120Z,-4.70
2019-01-20T01:06:13.278Z,-4.80
2019-01-20T01:08:42.655Z,-4.90
2019-01-20T01:11:11.881Z,-4.80
2019-01-20T01:13:41.148Z,-4.60
2019-01-20T01:16:10.317Z,-4.60
2019-01-20T01:18:39.488Z,-4.70
2019-01-20T01:21:08.643Z,-4.80
2019-01-20T01:23:37.876Z,-4.80
2019-01-20T01:26:07.095Z,-4.80
2019-01-20T01:28:36.259Z,-4.90
2019-01-20T01:31:05.450Z,-4.80
2019-01-20T01:33:34.587Z,-4.80
2019-01-20T01:36:03.841Z,-4.80
2019-01-20T01:38:32.989Z,-4.90
2019-01-20T01:41:02.171Z,-5.00
2019-01-20T01:43:31.388Z,-5.00
2019-01-20T01:46:00.623Z,-4.90
2019-01-20T01:48:29.804Z,-4.90
2019-01-20T01:50:58.971Z,-4.80
2019-01-20T01:53:28.122Z,-4.90
2019-01-20T01:55:57.378Z,-4.90
2019-01-20T01:58:26.512Z,-5.10
2019-01-20T02:00:57.685Z,-5.10
2019-01-20T02:03:26.854Z,-5.10
2019-01-20T02:05:56.085Z,-5.00
2019-01-20T02:08:25.228Z,-5.00
2019-01-20T02:10:54.436Z,-5.10
2019-01-20T02:13:23.703Z,-4.90
2019-01-20T02:15:52.949Z,-5.00
2019-01-20T02:18:22.120Z,-5.20
2019-01-20T02:20:51.408Z,-5.20
2019-01-20T02:23:20.578Z,-5.10
2019-01-20T02:25:49.764Z,-5.20
2019-01-20T02:28:18.921Z,-5.30
2019-01-20T02:30:48.272Z,-5.10
2019-01-20T02:33:17.452Z,-4.90
2019-01-20T02:35:46.620Z,-5.10
2019-01-20T02:38:15.853Z,-5.20
2019-01-20T02:40:45.004Z,-5.40
2019-01-20T02:43:14.190Z,-5.30
2019-01-20T02:45:43.383Z,-5.40
2019-01-20T02:48:12.745Z,-5.50
2019-01-20T02:50:42.190Z,-5.30
2019-01-20T02:53:11.353Z,-5.30
2019-01-20T02:55:40.576Z,-5.40
2019-01-20T02:58:09.750Z,-5.50
2019-01-20T03:00:38.986Z,-5.50
2019-01-20T03:03:08.140Z,-5.40
2019-01-20T03:05:37.295Z,-5.30
2019-01-20T03:08:06.481Z,-5.30
2019-01-20T03:10:35.636Z,-5.40
2019-01-20T03:13:04.892Z,-5.40
2019-01-20T03:15:35.792Z,-5.40
2019-01-20T03:18:05.553Z,-5.30
2019-01-20T03:20:34.712Z,-5.30
2019-01-20T03:23:03.898Z,-5.30
2019-01-20T03:25:33.032Z,-5.30
2019-01-20T03:28:02.232Z,-5.50
2019-01-20T03:30:31.381Z,-5.50
2019-01-20T03:33:03.729Z,-5.30
2019-01-20T03:35:32.985Z,-5.20
2019-01-20T03:38:02.172Z,-5.20
2019-01-20T03:40:31.335Z,-5.10
2019-01-20T03:43:00.533Z,-5.20
2019-01-20T03:45:29.686Z,-5.20
2019-01-20T03:47:58.873Z,-5.40
2019-01-20T03:50:28.108Z,-5.30
2019-01-20T03:52:57.295Z,-5.40
2019-01-20T03:55:45.512Z,-5.40
2019-01-20T03:58:15.046Z,-5.40
2019-01-20T04:00:44.209Z,-5.40
2019-01-20T04:03:13.369Z,-5.40
2019-01-20T04:05:42.523Z,-5.40
2019-01-20T04:08:11.670Z,-5.60
2019-01-20T04:10:40.916Z,-5.60
2019-01-20T04:13:10.141Z,-5.60
2019-01-20T04:15:39.320Z,-5.40
2019-01-20T04:18:08.473Z,-5.40
2019-01-20T04:20:37.651Z,-5.60
2019-01-20T04:23:06.801Z,-5.60
2019-01-20T04:25:36.045Z,-5.40
2019-01-20T04:28:05.195Z,-5.40
2019-01-20T04:30:34.353Z,-5.50
2019-01-20T04:33:03.521Z,-5.40
2019-01-20T04:35:32.691Z,-5.40
2019-01-20T04:38:01.861Z,-5.30
2019-01-20T04:40:31.015Z,-5.10
2019-01-20T04:43:00.163Z,-5.50
2019-01-20T04:45:29.407Z,-5.70
2019-01-20T04:47:58.556Z,-5.70
2019-01-20T04:50:27.751Z,-5.50
2019-01-20T04:52:56.910Z,-5.60
2019-01-20T04:55:26.066Z,-5.40
2019-01-20T04:57:55.991Z,-5.30
2019-01-20T05:00:27.513Z,-5.40
2019-01-20T05:02:56.763Z,-5.40
2019-01-20T05:05:26.096Z,-5.30
2019-01-20T05:07:55.277Z,-5.30
2019-01-20T05:10:24.482Z,-5.10
2019-01-20T05:12:53.712Z,-5.30
2019-01-20T05:15:25.598Z,-5.50
2019-01-20T05:17:55.051Z,-5.30
2019-01-20T05:20:24.411Z,-5.20
2019-01-20T05:22:53.580Z,-5.30
2019-01-20T05:25:22.849Z,-5.30
2019-01-20T05:27:52.078Z,-5.20
2019-01-20T05:30:23.675Z,-5.20
2019-01-20T05:32:52.862Z,-5.20
2019-01-20T05:35:22.003Z,-5.30
2019-01-20T05:37:51.181Z,-5.30
2019-01-20T05:40:21.204Z,-5.40
2019-01-20T05:42:50.608Z,-5.20
2019-01-20T05:45:21.990Z,-5.20
2019-01-20T05:47:51.223Z,-5.10
2019-01-20T05:50:20.400Z,-5.10
2019-01-20T05:52:49.561Z,-5.10
2019-01-20T05:55:18.707Z,-5.10
2019-01-20T05:57:48.000Z,-5.10
2019-01-20T06:00:28.117Z,-5.00
2019-01-20T06:02:57.485Z,-4.90
2019-01-20T06:05:26.643Z,-4.90
2019-01-20T06:07:55.797Z,-5.00
2019-01-20T06:10:24.949Z,-5.20
2019-01-20T06:12:54.605Z,-5.10
2019-01-20T06:15:24.526Z,-5.10
2019-01-20T06:17:53.685Z,-5.00
2019-01-20T06:20:22.853Z,-5.00
2019-01-20T06:22:51.984Z,-4.80
2019-01-20T06:25:21.146Z,-4.70
2019-01-20T06:27:50.284Z,-4.80
2019-01-20T06:30:22.460Z,-4.70
2019-01-20T06:32:51.600Z,-4.80
2019-01-20T06:35:20.767Z,-4.70
2019-01-20T06:37:50.004Z,-4.70
2019-01-20T06:40:19.197Z,-4.80
2019-01-20T06:42:48.348Z,-4.70
2019-01-20T06:45:17.518Z,-4.70
2019-01-20T06:47:46.781Z,-4.60
2019-01-20T06:50:16.765Z,-4.70
2019-01-20T06:52:45.921Z,-4.70
2019-01-20T06:55:15.297Z,-4.70
2019-01-20T06:57:44.470Z,-4.70
2019-01-20T07:00:16.304Z,-4.70
2019-01-20T07:02:45.467Z,-4.70
2019-01-20T07:05:15.368Z,-4.70
2019-01-20T07:07:44.637Z,-4.70
2019-01-20T07:10:15.066Z,-4.80
2019-01-20T07:12:44.232Z,-4.80
2019-01-20T07:15:22.076Z,-4.90
2019-01-20T07:17:51.322Z,-4.80
2019-01-20T07:20:20.840Z,-4.80
2019-01-20T07:22:50.005Z,-4.70
2019-01-20T07:25:19.295Z,-4.70
2019-01-20T07:27:48.456Z,-4.70
2019-01-20T07:30:19.855Z,-4.60
2019-01-20T07:32:49.187Z,-4.50
2019-01-20T07:35:18.749Z,-4.20
2019-01-20T07:37:48.048Z,-4.10
2019-01-20T07:40:19.133Z,-4.00
2019-01-20T07:42:48.328Z,-4.10
2019-01-20T07:45:18.215Z,-4.10
2019-01-20T07:47:49.046Z,-4.20
2019-01-20T07:50:25.905Z,-4.50
2019-01-20T07:52:55.202Z,-4.40
2019-01-20T07:55:24.527Z,-4.40
2019-01-20T07:57:53.768Z,-4.60
2019-01-20T08:00:24.812Z,-4.30
2019-01-20T08:02:54.023Z,-4.20
2019-01-20T08:05:23.243Z,-4.20
2019-01-20T08:07:52.400Z,-4.10
2019-01-20T08:10:26.744Z,-3.90
2019-01-20T08:12:55.912Z,-3.90
2019-01-20T08:15:25.192Z,-4.10
2019-01-20T08:17:54.367Z,-3.90
2019-01-20T08:20:24.223Z,-4.00
2019-01-20T08:22:53.466Z,-3.90
2019-01-20T08:25:23.520Z,-4.00
2019-01-20T08:27:52.705Z,-3.80
2019-01-20T08:30:24.088Z,-3.50
2019-01-20T08:32:53.227Z,-3.30
2019-01-20T08:35:22.506Z,-3.10
2019-01-20T08:37:51.699Z,-2.80
2019-01-20T08:40:23.456Z,-2.90
2019-01-20T08:42:52.612Z,-2.70
2019-01-20T08:45:42.933Z,-3.00
2019-01-20T08:48:16.483Z,-3.40
2019-01-20T08:50:45.702Z,-3.20
2019-01-20T08:53:14.890Z,-2.60
2019-01-20T08:55:44.121Z,-2.40
2019-01-20T08:58:13.300Z,-2.40
2019-01-20T09:00:42.557Z,-2.50
2019-01-20T09:03:11.704Z,-2.90
2019-01-20T09:05:41.021Z,-3.00
2019-01-20T09:08:10.262Z,-2.80
2019-01-20T09:10:41.468Z,-2.90
2019-01-20T09:13:11.134Z,-2.90
2019-01-20T09:15:40.504Z,-2.40
2019-01-20T09:18:09.653Z,-2.40
2019-01-20T09:20:38.820Z,-2.40
2019-01-20T09:23:07.983Z,-2.10
2019-01-20T09:25:37.233Z,-1.90
2019-01-20T09:28:06.430Z,-1.90
2019-01-20T09:30:35.868Z,-1.80
2019-01-20T09:33:05.348Z,-1.80
2019-01-20T09:35:34.524Z,-1.60
2019-01-20T09:38:03.877Z,-1.40
2019-01-20T09:40:33.066Z,-1.30
2019-01-20T09:43:02.212Z,-1.50
2019-01-20T09:45:31.623Z,-1.70
2019-01-20T09:48:00.936Z,-1.90
2019-01-20T09:50:30.119Z,-2.00
2019-01-20T09:52:59.285Z,-2.00
2019-01-20T09:55:28.438Z,-2.20
2019-01-20T09:57:57.889Z,-2.10
2019-01-20T10:00:28.835Z,-1.90
2019-01-20T10:02:58.009Z,-1.80
2019-01-20T10:05:40.125Z,-1.70
2019-01-20T10:08:09.345Z,-1.80
2019-01-20T10:10:38.553Z,-1.90
2019-01-20T10:13:07.721Z,-1.60
2019-01-20T10:15:36.935Z,-1.50
2019-01-20T10:18:06.213Z,-1.50
2019-01-20T10:20:35.363Z,-1.40
2019-01-20T10:23:04.654Z,-1.40
2019-01-20T10:25:33.834Z,-1.40
2019-01-20T10:28:03.316Z,-1.50
2019-01-20T10:30:34.362Z,-1.20
2019-01-20T10:33:03.869Z,-1.30
2019-01-20T10:35:46.453Z,-1.30
2019-01-20T10:38:15.825Z,-1.10
2019-01-20T10:40:45.153Z,-0.80
2019-01-20T10:43:14.352Z,-0.60
2019-01-20T10:45:43.670Z,-0.50
2019-01-20T10:48:12.936Z,-0.40
2019-01-20T10:50:42.201Z,-0.40
2019-01-20T10:53:11.344Z,-0.40
2019-01-20T10:55:40.522Z,-0.40
2019-01-20T10:58:11.680Z,-0.30
2019-01-20T11:00:41.817Z,-0.30
2019-01-20T11:03:11.168Z,-0.30
2019-01-20T11:05:40.363Z,-0.30
2019-01-20T11:08:09.541Z,-0.20
2019-01-20T11:10:39.956Z,-0.10
2019-01-20T11:13:09.527Z,0.00
2019-01-20T11:15:38.821Z,0.00
2019-01-20T11:18:08.060Z,0.00
2019-01-20T11:20:37.628Z,0.00
2019-01-20T11:23:06.848Z,0.10
2019-01-20T11:25:39.032Z,0.30
2019-01-20T11:28:08.364Z,0.40
2019-01-20T11:30:37.561Z,0.40
2019-01-20T11:33:07.624Z,0.50
2019-01-20T11:35:36.894Z,0.70
2019-01-20T11:38:06.417Z,0.60
2019-01-20T11:40:35.587Z,0.70
2019-01-20T11:43:05.137Z,0.80
2019-01-20T11:45:34.520Z,1.00
2019-01-20T11:48:04.011Z,1.00
2019-01-20T11:50:33.317Z,1.20
2019-01-20T11:53:02.573Z,1.40
2019-01-20T11:55:31.860Z,1.60
2019-01-20T11:58:01.092Z,1.40
2019-01-20T12:00:34.507Z,1.30
2019-01-20T12:03:04.084Z,1.30
2019-01-20T12:05:34.540Z,1.20
2019-01-20T12:08:04.076Z,1.00
2019-01-20T12:10:33.409Z,0.80
2019-01-20T12:13:05.237Z,0.80
2019-01-20T12:15:34.609Z,0.70
2019-01-20T12:18:04.534Z,0.70
2019-01-20T12:20:33.708Z,0.90
2019-01-20T12:23:02.960Z,0.90
2019-01-20T12:25:32.256Z,0.90
2019-01-20T12:28:01.572Z,1.00
2019-01-20T12:30:32.615Z,1.10
2019-01-20T12:33:01.795Z,1.30
2019-01-20T12:35:31.040Z,1.30
2019-01-20T12:38:00.419Z,1.30
2019-01-20T12:40:44.532Z,1.50
2019-01-20T12:43:14.265Z,1.60
2019-01-20T12:45:43.592Z,1.80
2019-01-20T12:48:12.864Z,2.00
2019-01-20T12:50:41.996Z,2.20
2019-01-20T12:53:11.260Z,2.30
2019-01-20T12:55:40.407Z,2.30
2019-01-20T12:58:09.991Z,2.20
2019-01-20T13:00:39.159Z,2.60
2019-01-20T13:03:08.313Z,2.50
2019-01-20T13:05:37.468Z,2.50
2019-01-20T13:08:06.729Z,2.30
2019-01-20T13:10:35.959Z,2.50
2019-01-20T13:13:05.327Z,2.50
2019-01-20T13:15:34.507Z,2.50
2019-01-20T13:18:03.692Z,2.60
2019-01-20T13:20:32.856Z,2.60
2019-01-20T13:23:02.170Z,3.00
2019-01-20T13:25:31.910Z,4.00
2019-01-20T13:28:01.545Z,4.40
2019-01-20T13:30:31.108Z,4.70
2019-01-20T13:33:00.235Z,4.50
2019-01-20T13:35:30.115Z,4.20
2019-01-20T13:38:08.041Z,4.00
2019-01-20T13:40:40.797Z,3.80
2019-01-20T13:43:10.157Z,3.40
2019-01-20T13:45:39.352Z,3.40
2019-01-20T13:48:08.563Z,3.30
2019-01-20T13:50:37.761Z,3.00
2019-01-20T13:53:06.929Z,2.90
2019-01-20T13:55:36.113Z,2.90
2019-01-20T13:58:05.396Z,2.90
2019-01-20T14:00:34.617Z,2.60
2019-01-20T14:03:03.808Z,2.60
2019-01-20T14:05:33.027Z,2.50
2019-01-20T14:08:02.302Z,2.40
2019-01-20T14:10:32.665Z,2.40
2019-01-20T14:13:01.848Z,2.20
2019-01-20T14:15:31.016Z,2.10
2019-01-20T14:18:00.188Z,2.00
2019-01-20T14:20:29.335Z,1.90
2019-01-20T14:22:58.607Z,1.80
2019-01-20T14:25:28.341Z,1.90
2019-01-20T14:27:57.892Z,1.90
2019-01-20T14:30:29.024Z,2.00
2019-01-20T14:32:58.186Z,1.90
2019-01-20T14:35:27.525Z,1.80
2019-01-20T14:37:56.855Z,1.80
2019-01-20T14:40:26.030Z,1.70
2019-01-20T14:42:55.884Z,1.60
2019-01-20T14:45:25.052Z,1.60
2019-01-20T14:47:54.334Z,1.70
2019-01-20T14:50:25.255Z,1.70
2019-01-20T14:52:54.420Z,1.70
2019-01-20T14:55:23.878Z,1.60
2019-01-20T14:57:53.445Z,1.60
2019-01-20T15:00:28.585Z,1.70
2019-01-20T15:02:58.000Z,1.80
2019-01-20T15:05:27.148Z,1.90
2019-01-20T15:07:56.396Z,2.10
2019-01-20T15:10:25.772Z,2.20
2019-01-20T15:12:55.152Z,2.30
2019-01-20T15:15:30.528Z,2.40
2019-01-20T15:17:59.805Z,2.30
2019-01-20T15:20:29.014Z,2.10
2019-01-20T15:22:58.296Z,2.00
2019-01-20T15:25:27.598Z,1.90
2019-01-20T15:27:56.737Z,1.90
2019-01-20T15:30:28.064Z,1.80
2019-01-20T15:32:58.603Z,1.60
2019-01-20T15:35:28.432Z,1.50
2019-01-20T15:37:57.770Z,1.50
2019-01-20T15:40:26.963Z,1.40
2019-01-20T15:42:56.322Z,1.50
2019-01-20T15:45:25.815Z,1.60
2019-01-20T15:47:55.094Z,1.50
2019-01-20T15:50:32.024Z,1.50
2019-01-20T15:53:01.898Z,1.40
2019-01-20T15:55:31.768Z,1.40
2019-01-20T15:58:00.949Z,1.40
2019-01-20T16:00:32.023Z,1.40
2019-01-20T16:03:01.542Z,1.40
2019-01-20T16:05:30.972Z,1.40
2019-01-20T16:08:00.264Z,1.50
2019-01-20T16:10:29.604Z,1.40
2019-01-20T16:12:58.777Z,1.40
2019-01-20T16:15:30.640Z,1.40
2019-01-20T16:17:59.812Z,1.30
2019-01-20T16:20:30.775Z,1.30
2019-01-20T16:23:00.921Z,1.30
2019-01-20T16:25:35.283Z,1.40
2019-01-20T16:28:05.386Z,1.40
2019-01-20T16:30:37.120Z,1.40
2019-01-20T16:33:06.723Z,1.30
2019-01-20T16:35:36.156Z,1.30
2019-01-20T16:38:07.045Z,1.30
2019-01-20T16:40:36.264Z,1.30
2019-01-20T16:43:05.930Z,1.30
2019-01-20T16:45:42.112Z,1.30
2019-01-20T16:48:11.897Z,1.20
2019-01-20T16:50:41.313Z,1.30
2019-01-20T16:53:10.843Z,1.30
2019-01-20T16:55:40.065Z,1.30
2019-01-20T16:58:09.337Z,1.30
2019-01-20T17:00:41.385Z,1.20
2019-01-20T17:03:10.697Z,1.20
2019-01-20T17:05:39.920Z,1.20
2019-01-20T17:08:09.550Z,1.10
2019-01-20T17:10:41.053Z,1.10
2019-01-20T17:13:11.338Z,1.10
2019-01-20T17:15:43.128Z,1.10
2019-01-20T17:18:13.813Z,1.20
2019-01-20T17:20:43.022Z,1.20
2019-01-20T17:23:12.272Z,1.20
2019-01-20T17:25:41.475Z,1.20
2019-01-20T17:28:11.794Z,1.20
2019-01-20T17:30:41.844Z,1.10
2019-01-20T17:33:12.596Z,1.10
2019-01-20T17:35:41.769Z,1.10
2019-01-20T17:38:11.856Z,1.10
2019-01-20T17:40:41.055Z,1.10
2019-01-20T17:43:10.324Z,1.10
2019-01-20T17:45:47.678Z,1.10
2019-01-20T17:48:13.438Z,1.20
2019-01-20T17:50:43.873Z,1.10
2019-01-20T17:53:13.596Z,1.10
2019-01-20T17:55:42.809Z,1.10
2019-01-20T17:58:11.973Z,1.10
2019-01-20T18:00:44.401Z,1.00
2019-01-20T18:03:14.043Z,0.90
2019-01-20T18:05:43.694Z,0.90
2019-01-20T18:08:12.952Z,0.90
2019-01-20T18:10:42.288Z,0.90
2019-01-20T18:13:11.707Z,0.80
2019-01-20T18:15:41.083Z,0.90
2019-01-20T18:18:10.460Z,0.90
2019-01-20T18:20:39.655Z,0.90
2019-01-20T18:23:08.873Z,0.80
2019-01-20T18:25:38.508Z,0.80
2019-01-20T18:28:07.669Z,0.90
2019-01-20T18:30:37.052Z,0.80
2019-01-20T18:33:06.408Z,0.90
2019-01-20T18:35:35.609Z,0.80
2019-01-20T18:38:04.965Z,0.80
2019-01-20T18:40:34.283Z,0.70
2019-01-20T18:43:03.565Z,0.80
2019-01-20T18:45:33.346Z,0.80
2019-01-20T18:48:02.485Z,0.80
2019-01-20T18:50:33.898Z,0.80
2019-01-20T18:53:03.257Z,0.80
2019-01-20T18:55:32.524Z,0.90
2019-01-20T18:58:01.755Z,0.90
2019-01-20T19:00:36.695Z,0.80
2019-01-20T19:03:06.461Z,0.80
2019-01-20T19:05:35.834Z,0.80
2019-01-20T19:08:05.339Z,0.80
2019-01-20T19:10:34.808Z,0.80
2019-01-20T19:13:05.612Z,0.80
2019-01-20T19:15:34.772Z,0.70
2019-01-20T19:18:04.053Z,0.80
2019-01-20T19:20:33.256Z,0.90
2019-01-20T19:23:02.544Z,0.80
2019-01-20T19:25:31.693Z,0.80
2019-01-20T19:28:01.041Z,0.70
2019-01-20T19:30:32.673Z,0.80
2019-01-20T19:33:02.053Z,0.80
2019-01-20T19:35:31.414Z,0.70
2019-01-20T19:38:00.898Z,0.70
2019-01-20T19:40:30.143Z,0.70
2019-01-20T19:42:59.608Z,0.70
2019-01-20T19:45:29.083Z,0.70
2019-01-20T19:47:58.473Z,0.80
2019-01-20T19:50:27.605Z,0.80
2019-01-20T19:52:56.865Z,0.80
2019-01-20T19:55:31.420Z,0.70
2019-01-20T19:58:01.990Z,0.70
2019-01-20T20:00:32.907Z,0.70
2019-01-20T20:03:02.190Z,0.70
2019-01-20T20:05:32.087Z,0.70
2019-01-20T20:08:01.549Z,0.70
2019-01-20T20:10:31.096Z,0.70
2019-01-20T20:13:00.284Z,0.70
2019-01-20T20:15:30.541Z,0.70
2019-01-20T20:17:59.715Z,0.70
2019-01-20T20:20:28.969Z,0.60
2019-01-20T20:22:58.212Z,0.70
2019-01-20T20:25:27.917Z,0.70
2019-01-20T20:27:57.092Z,0.60
2019-01-20T20:30:31.608Z,0.70
2019-01-20T20:33:00.846Z,0.70
2019-01-20T20:35:30.983Z,0.70
2019-01-20T20:38:00.268Z,0.80
2019-01-20T20:40:29.607Z,0.80
2019-01-20T20:42:58.924Z,0.80
2019-01-20T20:45:28.376Z,0.80
2019-01-20T20:47:58.730Z,0.80
2019-01-20T20:50:28.021Z,0.80
2019-01-20T20:52:57.756Z,0.80
2019-01-20T20:55:27.045Z,0.80
2019-01-20T20:57:56.227Z,0.80
2019-01-20T21:00:31.119Z,0.70
2019-01-20T21:03:01.621Z,0.70
2019-01-20T21:05:30.778Z,0.70
2019-01-20T21:08:00.096Z,0.70
2019-01-20T21:10:29.267Z,0.70
2019-01-20T21:12:58.452Z,0.70
2019-01-20T21:15:27.659Z,0.80
2019-01-20T21:17:56.864Z,0.70
2019-01-20T21:20:26.425Z,0.70
2019-01-20T21:22:55.677Z,0.70
2019-01-20T21:25:24.947Z,0.80
2019-01-20T21:27:54.144Z,0.80
2019-01-20T21:30:25.595Z,0.80
2019-01-20T21:32:54.767Z,0.70
2019-01-20T21:35:24.092Z,0.80
2019-01-20T21:37:53.328Z,0.70
2019-01-20T21:40:22.509Z,0.70
2019-01-20T21:42:51.762Z,0.70
2019-01-20T21:45:21.093Z,0.70
2019-01-20T21:47:50.273Z,0.70
2019-01-20T21:50:22.072Z,0.70
2019-01-20T21:52:51.606Z,0.80
2019-01-20T21:55:20.772Z,0.80
2019-01-20T21:57:49.941Z,0.80
2019-01-20T22:00:21.499Z,0.80
2019-01-20T22:02:50.694Z,0.80
2019-01-20T22:05:19.853Z,0.80
2019-01-20T22:07:49.200Z,0.80
2019-01-20T22:10:20.277Z,0.70
2019-01-20T22:12:49.468Z,0.80
2019-01-20T22:15:19.056Z,0.80
2019-01-20T22:17:48.905Z,0.70
2019-01-20T22:20:19.920Z,0.80
2019-01-20T22:22:49.538Z,0.80
2019-01-20T22:25:18.861Z,0.70
2019-01-20T22:27:48.070Z,0.80
2019-01-20T22:30:19.421Z,0.80
2019-01-20T22:32:48.557Z,0.80
2019-01-20T22:35:17.965Z,0.80
2019-01-20T22:37:47.169Z,0.80
2019-01-20T22:40:17.519Z,0.70
2019-01-20T22:42:46.812Z,0.80
2019-01-20T22:45:18.520Z,0.80
2019-01-20T22:47:47.663Z,0.70
2019-01-20T22:50:17.273Z,0.70
2019-01-20T22:52:46.453Z,0.80
2019-01-20T22:55:16.314Z,0.80
2019-01-20T22:57:45.497Z,0.70
2019-01-20T23:01:05.132Z,0.70
2019-01-20T23:03:34.285Z,0.70
2019-01-20T23:06:03.513Z,0.70
2019-01-20T23:08:32.729Z,0.70
2019-01-20T23:11:01.884Z,0.80
2019-01-20T23:13:31.040Z,0.70
2019-01-20T23:16:00.220Z,0.80
2019-01-20T23:18:29.389Z,0.70
2019-01-20T23:20:58.569Z,0.80
2019-01-20T23:23:27.729Z,0.80
2019-01-20T23:25:56.989Z,0.70
2019-01-20T23:28:26.153Z,0.80
2019-01-20T23:30:59.003Z,0.80
2019-01-20T23:33:28.756Z,0.80
2019-01-20T23:35:58.728Z,0.80
2019-01-20T23:38:28.612Z,0.80
2019-01-20T23:40:58.687Z,0.80
2019-01-20T23:43:28.633Z,0.70
2019-01-20T23:45:57.760Z,0.70
2019-01-20T23:48:27.053Z,0.80
2019-01-20T23:50:56.226Z,0.70
2019-01-20T23:53:25.445Z,0.80
2019-01-20T23:55:54.569Z,0.70
2019-01-20T23:58:23.734Z,0.60
